Spriggs Payne Airport

Jump to: basic info | weather | frequencies | runways | comments

Related pages: nearby airports | nearby navaids | notams | map

Basic information (top)

Codes: MLW GLMR
Location: lon 6.289060, lat -10.758700, elev 25 ft / 8 m msl
Status: medium_airport
Scheduled airline service: yes
Links: Wikipedia Mobile

Weather (top)

Current conditions for Roberts International Airport 24nm (44km) E (rec'd 2014/09/19 11:30Z):

GLRB 191130Z 28003KT 9999 BKN015 FEW023CB 27/24 Q1014 RMK CB-S

Airport forecast for Roberts International Airport 24nm (44km) E (rec'd 2014/09/18 18:21Z):

TAF GLRB 181600Z 1818/1924 24012KT 7000 TSRA SCT003 BKN013 FEW023CB 
      TEMPO 1220/1902 06010KT 5000 FM 190300 02010KT 8000 TSRA/TS SCT004 BKN014 FEW024CB 
      BECMG 1907/1909 20010KT 9000

Frequencies (top)

Verify before use: may be inaccurate or out of date.

APP: 124.5 MHz (ROBERTS APP)
TWR: 118.7 MHz (SPRIGGS TWR)

Runways (top)

05/23: 6,000 x 100 ft (1,829 x 30 m) — paved — lighted — threshold 05 displaced 200 ft (61 m) — threshold 23 displaced 200 ft (61 m)

Latest comments (top)

No comments yet for Spriggs Payne Airport

More... (top)

See also NOTAMs and nearby airports and navaids, or visit the Spriggs Payne Airport page at the main OurAirports website..